Terminal Aerodrome Forecast
Issued by NWS

Home | Current Version | Previous Version | Graphics & Text | Print | Product List | Glossary On
Versions: 1 2 3 4 5 6 7 8 9 10 11 12 13 14 15 16 17 18 19 20 21 22
000
FTUS43 KGRB 180737 AAA
TAFAUW
TAF AMD
KAUW 180737Z 1808/1906 25005KT 1SM BR OVC005
      TEMPO 1808/1812 1/2SM FG VV003
     FM181500 22008KT 2SM BR BKN006
     FM181800 22009KT P6SM SCT012
     FM182300 23005KT P6SM SKC=

USA.gov is the U.S. government's official web portal to all federal, state and local government web resources and services.